createdAt,value
2022-08-09T00:00:00.478Z,1.30
2022-08-09T00:02:29.216Z,1.30
2022-08-09T00:05:02.861Z,1.20
2022-08-09T00:07:45.313Z,1.13
2022-08-09T00:10:21.563Z,1.20
2022-08-09T00:12:53.463Z,1.20
2022-08-09T00:15:35.651Z,1.27
2022-08-09T00:18:12.071Z,1.27
2022-08-09T00:20:42.368Z,1.50
2022-08-09T00:23:54.841Z,1.30
2022-08-09T00:26:11.206Z,1.25
2022-08-09T00:28:52.681Z,1.30
2022-08-09T00:31:57.615Z,1.40
2022-08-09T00:34:10.836Z,1.52
2022-08-09T00:36:40.038Z,1.55
2022-08-09T00:39:16.841Z,1.45
2022-08-09T00:44:11.421Z,1.58
2022-08-09T00:44:47.299Z,1.50
2022-08-09T00:47:15.569Z,1.17
2022-08-09T00:49:52.477Z,1.35
2022-08-09T00:52:28.074Z,1.20
2022-08-09T00:55:00.126Z,1.27
2022-08-09T00:57:33.697Z,1.37
2022-08-09T01:00:21.703Z,1.08
2022-08-09T01:02:54.619Z,1.38
2022-08-09T01:05:53.437Z,1.23
2022-08-09T01:08:26.829Z,1.20
2022-08-09T01:11:09.189Z,1.30
2022-08-09T01:13:58.798Z,1.20
2022-08-09T01:16:32.905Z,1.30
2022-08-09T01:19:06.131Z,1.40
2022-08-09T01:21:53.536Z,1.40
2022-08-09T01:24:36.011Z,1.50
2022-08-09T01:27:12.227Z,1.10
2022-08-09T01:29:55.775Z,1.35
2022-08-09T01:32:30.714Z,1.45
2022-08-09T01:35:29.022Z,1.13
2022-08-09T01:38:08.146Z,1.20
2022-08-09T01:40:42.174Z,1.40
2022-08-09T01:43:13.528Z,1.25
2022-08-09T01:45:44.716Z,1.10
2022-08-09T01:48:17.626Z,1.10
2022-08-09T01:50:55.177Z,1.30
2022-08-09T01:53:29.332Z,1.30
2022-08-09T01:56:11.101Z,1.30
2022-08-09T01:58:44.051Z,1.40
2022-08-09T02:01:18.786Z,1.40
2022-08-09T02:03:48.547Z,1.43
2022-08-09T02:06:17.466Z,1.75
2022-08-09T02:08:59.163Z,1.52
2022-08-09T02:11:41.994Z,1.55
2022-08-09T02:14:25.298Z,1.85
2022-08-09T02:17:14.562Z,1.43
2022-08-09T02:19:45.868Z,1.52
2022-08-09T02:22:37.942Z,1.42
2022-08-09T02:25:15.231Z,1.48
2022-08-09T02:28:00.184Z,1.48
2022-08-09T02:30:38.953Z,1.43
2022-08-09T02:33:14.486Z,1.60
2022-08-09T02:36:03.856Z,1.52
2022-08-09T02:38:37.931Z,1.23
2022-08-09T02:41:10.474Z,1.50
2022-08-09T02:43:42.384Z,1.60
2022-08-09T02:46:25.321Z,1.40
2022-08-09T02:48:59.884Z,1.45
2022-08-09T02:51:33.028Z,1.50
2022-08-09T02:54:09.167Z,1.60
2022-08-09T02:56:37.594Z,1.30
2022-08-09T02:59:08.833Z,1.60
2022-08-09T03:01:58.510Z,1.48
2022-08-09T03:04:29.904Z,1.80
2022-08-09T03:07:13.954Z,1.73
2022-08-09T03:09:53.916Z,1.50
2022-08-09T03:12:25.455Z,1.60
2022-08-09T03:14:54.502Z,1.55
2022-08-09T03:17:26.642Z,1.83
2022-08-09T03:20:05.194Z,1.60
2022-08-09T03:22:41.883Z,1.63
2022-08-09T03:25:26.911Z,1.52
2022-08-09T03:28:02.689Z,1.75
2022-08-09T03:30:34.292Z,1.45
2022-08-09T03:33:12.954Z,1.70
2022-08-09T03:36:13.172Z,1.20
2022-08-09T03:38:33.801Z,1.70
2022-08-09T03:41:02.831Z,1.38
2022-08-09T03:43:33.171Z,1.48
2022-08-09T03:46:20.544Z,1.90
2022-08-09T03:48:58.196Z,1.53
2022-08-09T03:51:55.339Z,1.30
2022-08-09T03:54:18.736Z,2.20
2022-08-09T03:57:00.464Z,2.00
2022-08-09T03:59:53.669Z,1.70
2022-08-09T04:02:30.525Z,1.60
2022-08-09T04:05:06.487Z,1.60
2022-08-09T04:07:52.934Z,1.58
2022-08-09T04:10:29.314Z,1.63
2022-08-09T04:13:01.302Z,1.80
2022-08-09T04:16:17.131Z,1.40
2022-08-09T04:18:21.520Z,1.90
2022-08-09T04:20:51.859Z,1.73
2022-08-09T04:23:23.458Z,1.60
2022-08-09T04:25:54.744Z,1.65
2022-08-09T04:28:33.734Z,1.63
2022-08-09T04:31:05.654Z,1.52
2022-08-09T04:33:52.865Z,1.50
2022-08-09T04:36:24.915Z,1.63
2022-08-09T04:38:53.032Z,1.70
2022-08-09T04:41:23.940Z,1.90
2022-08-09T04:44:05.031Z,1.83
2022-08-09T04:46:59.647Z,1.50
2022-08-09T04:49:40.163Z,1.58
2022-08-09T04:52:18.346Z,1.95
2022-08-09T04:54:51.748Z,2.00
2022-08-09T04:57:23.729Z,1.45
2022-08-09T04:59:55.242Z,1.73
2022-08-09T05:02:23.713Z,1.70
2022-08-09T05:04:55.817Z,1.90
2022-08-09T05:07:29.395Z,1.80
2022-08-09T05:10:02.199Z,2.00
2022-08-09T05:12:31.304Z,1.85
2022-08-09T05:15:01.406Z,1.85
2022-08-09T05:18:50.637Z,1.67
2022-08-09T05:20:19.627Z,1.60
2022-08-09T05:23:56.998Z,1.90
2022-08-09T05:25:38.387Z,1.60
2022-08-09T05:28:09.362Z,1.60
2022-08-09T05:30:37.433Z,2.03
2022-08-09T05:33:10.860Z,1.53
2022-08-09T05:35:49.852Z,1.48
2022-08-09T05:38:22.021Z,1.77
2022-08-09T05:40:50.834Z,1.75
2022-08-09T05:43:18.929Z,1.33
2022-08-09T05:45:55.713Z,1.60
2022-08-09T05:49:51.675Z,1.70
2022-08-09T05:52:10.533Z,1.60
2022-08-09T05:54:39.633Z,1.42
2022-08-09T05:57:12.685Z,1.60
2022-08-09T05:59:42.458Z,1.33
2022-08-09T06:02:10.429Z,1.10
2022-08-09T06:04:44.714Z,1.55
2022-08-09T06:07:21.655Z,1.30
2022-08-09T06:09:55.106Z,1.42
2022-08-09T06:12:30.203Z,1.27
2022-08-09T06:15:01.263Z,1.13
2022-08-09T06:17:40.350Z,1.10
2022-08-09T06:20:09.903Z,1.10
2022-08-09T06:22:38.812Z,1.50
2022-08-09T06:25:09.456Z,1.20
2022-08-09T06:27:51.756Z,1.08
2022-08-09T06:30:20.038Z,0.90
2022-08-09T06:33:00.960Z,1.10
2022-08-09T06:35:57.448Z,1.20
2022-08-09T06:38:32.263Z,1.20
2022-08-09T06:41:18.693Z,1.10
2022-08-09T06:43:47.732Z,1.20
2022-08-09T06:46:40.089Z,1.05
2022-08-09T06:49:03.480Z,1.45
2022-08-09T06:51:33.932Z,1.30
2022-08-09T06:54:09.310Z,1.38
2022-08-09T06:56:45.557Z,1.48
2022-08-09T07:00:54.310Z,1.45
2022-08-09T07:02:04.522Z,1.23
2022-08-09T07:04:33.031Z,1.10
2022-08-09T07:07:01.257Z,1.00
2022-08-09T07:09:55.041Z,0.90
2022-08-09T07:12:22.486Z,0.88
2022-08-09T07:16:35.028Z,1.23
2022-08-09T07:17:56.263Z,1.27
2022-08-09T07:20:30.039Z,1.45
2022-08-09T07:22:59.614Z,1.30
2022-08-09T07:25:27.933Z,1.23
2022-08-09T07:27:58.087Z,1.15
2022-08-09T07:30:33.346Z,1.23
2022-08-09T07:33:10.277Z,1.30
2022-08-09T07:35:54.362Z,1.27
2022-08-09T07:38:23.821Z,1.20
2022-08-09T07:41:11.828Z,0.80
2022-08-09T07:43:56.010Z,0.93
2022-08-09T07:46:27.865Z,1.10
2022-08-09T07:48:59.184Z,1.30
2022-08-09T07:52:04.508Z,1.10
2022-08-09T07:54:28.117Z,1.20
2022-08-09T07:56:58.714Z,1.00
2022-08-09T07:59:34.572Z,1.10
2022-08-09T08:02:19.837Z,1.10
2022-08-09T08:04:48.563Z,1.20
2022-08-09T08:08:43.623Z,1.00
2022-08-09T08:10:08.672Z,1.20
2022-08-09T08:12:42.407Z,1.00
2022-08-09T08:15:16.755Z,1.08
2022-08-09T08:17:55.208Z,1.10
2022-08-09T08:20:30.594Z,1.27
2022-08-09T08:23:06.982Z,0.70
2022-08-09T08:25:48.279Z,1.05
2022-08-09T08:28:32.028Z,0.77
2022-08-09T08:31:13.871Z,0.80
2022-08-09T08:33:52.605Z,1.10
2022-08-09T08:36:28.985Z,0.80
2022-08-09T08:38:59.818Z,0.90
2022-08-09T08:41:51.193Z,0.60
2022-08-09T08:44:23.059Z,0.70
2022-08-09T08:47:03.248Z,0.85
2022-08-09T08:49:47.822Z,0.90
2022-08-09T08:52:52.986Z,0.80
2022-08-09T08:55:06.230Z,0.85
2022-08-09T08:57:35.892Z,0.95
2022-08-09T09:00:12.828Z,0.80
2022-08-09T09:02:53.505Z,1.10
2022-08-09T09:05:58.603Z,1.20
2022-08-09T09:08:30.709Z,1.10
2022-08-09T09:11:03.021Z,1.55
2022-08-09T09:13:41.925Z,0.98
2022-08-09T09:16:30.873Z,1.00
2022-08-09T09:19:36.622Z,0.90
2022-08-09T09:22:03.830Z,1.13
2022-08-09T09:24:34.713Z,0.80
2022-08-09T09:27:03.766Z,0.90
2022-08-09T09:29:45.976Z,0.97
2022-08-09T09:32:34.471Z,0.98
2022-08-09T09:35:09.270Z,1.15
2022-08-09T09:37:40.372Z,0.82
2022-08-09T09:40:11.732Z,1.25
2022-08-09T09:42:46.032Z,1.20
2022-08-09T09:45:26.997Z,0.90
2022-08-09T09:47:59.042Z,0.70
2022-08-09T09:50:50.814Z,1.20
2022-08-09T09:53:21.398Z,1.00
2022-08-09T09:56:04.443Z,2.60
2022-08-09T09:58:46.758Z,2.40
2022-08-09T10:01:31.559Z,1.88
2022-08-09T10:04:08.911Z,1.60
2022-08-09T10:06:43.413Z,1.20
2022-08-09T10:09:22.724Z,1.13
2022-08-09T10:12:12.458Z,1.30
2022-08-09T10:14:48.417Z,1.20
2022-08-09T10:17:39.609Z,0.80
2022-08-09T10:20:32.066Z,0.85
2022-08-09T10:23:17.468Z,1.00
2022-08-09T10:26:06.586Z,0.90
2022-08-09T10:39:49.939Z,1.17
2022-08-09T10:42:18.948Z,1.38
2022-08-09T10:44:51.405Z,1.23
2022-08-09T10:48:14.489Z,1.30
2022-08-09T10:50:46.954Z,1.10
2022-08-09T10:53:24.345Z,1.30
2022-08-09T10:59:55.376Z,1.70
2022-08-09T11:03:15.058Z,2.40
2022-08-09T11:05:30.209Z,1.67
2022-08-09T11:08:43.714Z,1.10
2022-08-09T11:11:17.393Z,1.00
2022-08-09T11:13:50.967Z,1.05
2022-08-09T11:16:35.505Z,1.80
2022-08-09T11:19:09.595Z,1.23
2022-08-09T11:25:25.904Z,1.42
2022-08-09T11:28:38.716Z,1.20
2022-08-09T11:31:53.187Z,1.10
2022-08-09T11:34:30.977Z,1.05
2022-08-09T11:37:07.427Z,0.70
2022-08-09T11:40:01.378Z,0.90
2022-08-09T11:42:50.255Z,0.90
2022-08-09T11:45:42.431Z,1.08
2022-08-09T11:48:26.815Z,1.10
2022-08-09T11:52:48.858Z,1.00
2022-08-09T11:54:28.693Z,1.10
2022-08-09T11:57:55.530Z,1.00
2022-08-09T12:00:28.381Z,1.20
2022-08-09T12:02:59.067Z,0.82
2022-08-09T12:05:42.116Z,1.00
2022-08-09T12:08:12.345Z,1.50
2022-08-09T12:10:53.050Z,1.10
2022-08-09T12:14:07.428Z,1.17
2022-08-09T12:16:30.450Z,1.30
2022-08-09T12:19:02.796Z,1.17
2022-08-09T12:21:38.902Z,1.30
2022-08-09T12:24:08.806Z,1.27
2022-08-09T12:26:44.757Z,2.40
2022-08-09T12:29:51.282Z,1.42
2022-08-09T12:32:28.057Z,1.27
2022-08-09T12:35:03.170Z,2.72
2022-08-09T12:37:33.640Z,2.10
2022-08-09T12:40:13.126Z,2.60
2022-08-09T12:42:44.913Z,1.60
2022-08-09T12:45:32.422Z,1.10
2022-08-09T12:48:02.446Z,1.10
2022-08-09T12:50:31.827Z,1.13
2022-08-09T12:53:08.772Z,1.30
2022-08-09T12:56:12.574Z,2.78
2022-08-09T12:58:28.198Z,1.70
2022-08-09T13:00:56.564Z,1.13
2022-08-09T13:03:53.841Z,1.23
2022-08-09T13:06:34.551Z,1.20
2022-08-09T13:09:07.480Z,1.33
2022-08-09T13:11:39.159Z,1.20
2022-08-09T13:14:42.563Z,2.00
2022-08-09T13:16:59.922Z,1.50
2022-08-09T13:20:07.012Z,1.10
2022-08-09T13:22:45.517Z,1.15
2022-08-09T13:25:12.130Z,1.10
2022-08-09T13:27:48.586Z,1.20
2022-08-09T13:30:48.859Z,1.25
2022-08-09T13:33:17.094Z,1.23
2022-08-09T13:36:37.414Z,1.10
2022-08-09T13:38:56.175Z,1.20
2022-08-09T13:41:57.742Z,1.20
2022-08-09T13:44:17.107Z,1.25
2022-08-09T13:47:26.963Z,1.40
2022-08-09T13:49:39.506Z,0.75
2022-08-09T13:52:21.464Z,1.00
2022-08-09T13:54:58.825Z,1.00
2022-08-09T13:57:36.702Z,2.00
2022-08-09T14:00:12.056Z,2.72
2022-08-09T14:02:42.460Z,2.08
2022-08-09T14:05:56.421Z,1.53
2022-08-09T14:08:17.737Z,0.98
2022-08-09T14:10:50.152Z,1.23
2022-08-09T14:14:15.663Z,0.85
2022-08-09T14:16:12.457Z,1.10
2022-08-09T14:18:45.405Z,0.90
2022-08-09T14:21:18.433Z,1.20
2022-08-09T14:23:55.389Z,1.00
2022-08-09T14:26:31.463Z,1.00
2022-08-09T14:29:02.699Z,1.15
2022-08-09T14:31:35.789Z,1.03
2022-08-09T14:34:31.017Z,1.05
2022-08-09T14:37:01.753Z,1.20
2022-08-09T14:39:45.666Z,1.20
2022-08-09T14:42:29.043Z,1.77
2022-08-09T14:46:38.861Z,0.90
2022-08-09T14:47:58.575Z,1.20
2022-08-09T14:50:28.966Z,1.70
2022-08-09T14:52:57.649Z,0.85
2022-08-09T14:55:25.701Z,0.95
2022-08-09T14:58:02.850Z,1.00
2022-08-09T15:00:31.532Z,1.10
2022-08-09T15:03:00.077Z,1.05
2022-08-09T15:05:28.184Z,1.20
2022-08-09T15:07:58.276Z,1.10
2022-08-09T15:10:26.292Z,1.00
2022-08-09T15:12:54.199Z,1.08
2022-08-09T15:15:24.704Z,1.17
2022-08-09T15:17:56.742Z,1.15
2022-08-09T15:21:57.234Z,1.10
2022-08-09T15:24:01.797Z,0.90
2022-08-09T15:26:03.127Z,0.93
2022-08-09T15:28:33.042Z,1.00
2022-08-09T15:31:10.361Z,1.20
2022-08-09T15:34:17.686Z,1.00
2022-08-09T15:36:31.161Z,0.83
2022-08-09T15:39:00.081Z,1.08
2022-08-09T15:41:31.217Z,1.05
2022-08-09T15:44:01.953Z,1.30
2022-08-09T15:46:34.030Z,1.27
2022-08-09T15:49:22.402Z,1.20
2022-08-09T15:52:03.147Z,1.38
2022-08-09T15:54:46.273Z,1.27
2022-08-09T15:57:19.094Z,1.05
2022-08-09T15:59:57.591Z,1.05
2022-08-09T16:02:27.238Z,1.00
2022-08-09T16:04:55.342Z,0.75
2022-08-09T16:07:23.543Z,1.35
2022-08-09T16:10:02.531Z,1.30
2022-08-09T16:12:33.421Z,0.95
2022-08-09T16:15:01.706Z,0.90
2022-08-09T16:17:30.858Z,0.93
2022-08-09T16:20:04.677Z,1.00
2022-08-09T16:22:42.490Z,1.10
2022-08-09T16:25:16.492Z,1.30
2022-08-09T16:28:04.543Z,1.20
2022-08-09T16:30:32.902Z,1.17
2022-08-09T16:33:11.698Z,1.60
2022-08-09T16:35:57.078Z,1.50
2022-08-09T16:38:26.345Z,1.10
2022-08-09T16:40:56.454Z,0.97
2022-08-09T16:43:24.383Z,1.00
2022-08-09T16:45:55.230Z,1.20
2022-08-09T16:48:50.657Z,1.05
2022-08-09T16:51:14.670Z,1.00
2022-08-09T16:54:09.111Z,1.20
2022-08-09T16:56:32.936Z,4.95
2022-08-09T16:59:10.656Z,4.50
2022-08-09T17:01:38.995Z,2.20
2022-08-09T17:04:13.833Z,1.90
2022-08-09T17:08:44.165Z,1.70
2022-08-09T17:09:45.018Z,1.63
2022-08-09T17:12:15.082Z,1.10
2022-08-09T17:14:47.651Z,4.18
2022-08-09T17:17:27.246Z,1.90
2022-08-09T17:20:28.882Z,1.20
2022-08-09T17:22:49.732Z,1.10
2022-08-09T17:25:19.327Z,2.05
2022-08-09T17:27:49.544Z,3.72
2022-08-09T17:30:25.709Z,5.57
2022-08-09T17:32:54.856Z,1.53
2022-08-09T17:35:26.881Z,1.88
2022-08-09T17:38:10.166Z,2.60
2022-08-09T17:40:47.235Z,2.72
2022-08-09T17:43:35.110Z,1.85
2022-08-09T17:46:07.581Z,2.37
2022-08-09T17:48:40.312Z,2.25
2022-08-09T17:51:18.641Z,2.55
2022-08-09T17:53:52.679Z,2.47
2022-08-09T17:56:26.797Z,3.22
2022-08-09T17:58:57.258Z,1.63
2022-08-09T18:01:25.069Z,1.98
2022-08-09T18:03:54.327Z,2.80
2022-08-09T18:06:32.109Z,3.10
2022-08-09T18:09:03.117Z,2.22
2022-08-09T18:11:46.807Z,1.30
2022-08-09T18:14:20.891Z,1.15
2022-08-09T18:16:49.468Z,1.17
2022-08-09T18:20:56.772Z,1.00
2022-08-09T18:22:16.646Z,0.70
2022-08-09T18:24:46.492Z,0.90
2022-08-09T18:27:49.140Z,1.02
2022-08-09T18:30:40.546Z,0.80
2022-08-09T18:32:54.386Z,1.38
2022-08-09T18:35:59.385Z,1.00
2022-08-09T18:38:13.083Z,1.00
2022-08-09T18:40:41.258Z,0.90
2022-08-09T18:43:09.554Z,1.00
2022-08-09T18:46:50.913Z,0.95
2022-08-09T18:48:30.483Z,0.80
2022-08-09T18:51:00.938Z,0.90
2022-08-09T18:53:36.723Z,0.70
2022-08-09T18:56:20.009Z,0.88
2022-08-09T18:58:55.516Z,1.10
2022-08-09T19:01:23.597Z,0.85
2022-08-09T19:04:00.971Z,0.77
2022-08-09T19:06:34.600Z,0.90
2022-08-09T19:09:06.123Z,1.30
2022-08-09T19:11:35.324Z,0.95
2022-08-09T19:14:06.573Z,1.02
2022-08-09T19:16:36.591Z,1.10
2022-08-09T19:19:19.313Z,1.20
2022-08-09T19:22:06.604Z,1.02
2022-08-09T19:25:09.157Z,1.15
2022-08-09T19:27:28.684Z,1.25
2022-08-09T19:30:20.959Z,1.00
2022-08-09T19:32:45.119Z,1.63
2022-08-09T19:35:13.068Z,1.50
2022-08-09T19:37:55.905Z,1.33
2022-08-09T19:40:34.326Z,1.70
2022-08-09T19:43:05.418Z,2.10
2022-08-09T19:45:40.186Z,1.80
2022-08-09T19:48:09.576Z,1.70
2022-08-09T19:50:51.184Z,2.35
2022-08-09T19:53:22.240Z,2.40
2022-08-09T19:56:05.881Z,2.57
2022-08-09T19:58:34.890Z,2.22
2022-08-09T20:01:04.102Z,2.40
2022-08-09T20:04:17.373Z,2.38
2022-08-09T20:06:23.241Z,2.50
2022-08-09T20:08:56.753Z,2.00
2022-08-09T20:11:27.188Z,1.70
2022-08-09T20:14:13.060Z,1.98
2022-08-09T20:16:49.750Z,1.60
2022-08-09T20:19:48.490Z,2.42
2022-08-09T20:22:10.072Z,2.07
2022-08-09T20:24:41.759Z,1.73
2022-08-09T20:27:11.566Z,1.63
2022-08-09T20:29:41.811Z,1.45
2022-08-09T20:32:29.178Z,1.75
2022-08-09T20:34:57.509Z,1.83
2022-08-09T20:37:25.354Z,1.40
2022-08-09T20:40:15.377Z,1.80
2022-08-09T20:42:59.244Z,1.90
2022-08-09T20:46:00.803Z,1.70
2022-08-09T20:48:21.312Z,1.70
2022-08-09T20:50:58.190Z,2.00
2022-08-09T20:53:36.911Z,1.65
2022-08-09T20:56:08.632Z,1.80
2022-08-09T20:58:38.352Z,1.58
2022-08-09T21:01:33.225Z,1.20
2022-08-09T21:05:49.246Z,1.35
2022-08-09T21:06:47.576Z,1.27
2022-08-09T21:09:16.530Z,1.42
2022-08-09T21:14:40.136Z,1.43
2022-08-09T21:18:11.431Z,1.38
2022-08-09T21:20:18.108Z,1.85
2022-08-09T21:22:46.646Z,1.40
2022-08-09T21:25:37.942Z,1.65
2022-08-09T21:28:07.535Z,1.40
2022-08-09T21:30:41.520Z,1.30
2022-08-09T21:33:09.438Z,1.40
2022-08-09T21:35:50.747Z,1.40
2022-08-09T21:38:21.067Z,1.90
2022-08-09T21:40:59.800Z,1.30
2022-08-09T21:43:56.221Z,1.67
2022-08-09T21:46:17.597Z,1.63
2022-08-09T21:48:49.179Z,1.60
2022-08-09T21:51:24.549Z,1.70
2022-08-09T21:54:04.099Z,1.70
2022-08-09T21:56:43.032Z,1.60
2022-08-09T21:59:19.547Z,1.90
2022-08-09T22:02:00.542Z,1.60
2022-08-09T22:04:55.063Z,1.50
2022-08-09T22:07:23.407Z,1.70
2022-08-09T22:10:06.110Z,2.00
2022-08-09T22:12:34.143Z,1.63
2022-08-09T22:15:01.901Z,1.70
2022-08-09T22:17:32.468Z,1.60
2022-08-09T22:20:02.285Z,1.83
2022-08-09T22:22:33.833Z,1.70
2022-08-09T22:26:06.159Z,1.88
2022-08-09T22:27:50.033Z,1.40
2022-08-09T22:30:26.108Z,1.50
2022-08-09T22:33:01.511Z,2.00
2022-08-09T22:36:02.147Z,1.50
2022-08-09T22:38:18.172Z,2.00
2022-08-09T22:40:49.076Z,1.63
2022-08-09T22:44:00.609Z,1.67
2022-08-09T22:48:14.552Z,1.60
2022-08-09T22:49:10.126Z,1.40
2022-08-09T22:51:39.511Z,1.50
2022-08-09T22:54:21.249Z,1.73
2022-08-09T22:56:50.827Z,1.70
2022-08-09T22:59:55.731Z,1.80
2022-08-09T23:02:10.581Z,1.55
2022-08-09T23:04:54.179Z,1.77
2022-08-09T23:08:23.086Z,1.30
2022-08-09T23:10:28.718Z,1.95
2022-08-09T23:12:56.457Z,1.60
2022-08-09T23:15:24.326Z,1.60
2022-08-09T23:17:52.248Z,1.42
2022-08-09T23:20:21.481Z,1.73
2022-08-09T23:22:51.462Z,1.60
2022-08-09T23:25:19.162Z,1.30
2022-08-09T23:28:13.952Z,1.55
2022-08-09T23:30:34.822Z,1.42
2022-08-09T23:33:02.806Z,1.50
2022-08-09T23:35:31.960Z,1.50
2022-08-09T23:38:20.142Z,1.70
2022-08-09T23:40:51.733Z,1.67
2022-08-09T23:43:19.991Z,1.60
2022-08-09T23:45:48.197Z,1.48
2022-08-09T23:48:16.948Z,1.40
2022-08-09T23:50:46.023Z,1.67
2022-08-09T23:53:14.273Z,1.70
2022-08-09T23:55:49.434Z,1.58
2022-08-09T23:58:26.013Z,1.50
